sensor_id;sensor_type;location;lat;lon;timestamp;temperature;humidity
1447;DHT22;717;51.522;7.266;2023-06-14T00:01:07;24.40;71.00
1447;DHT22;717;51.522;7.266;2023-06-14T00:03:41;24.30;71.10
1447;DHT22;717;51.522;7.266;2023-06-14T00:06:10;24.30;70.90
1447;DHT22;717;51.522;7.266;2023-06-14T00:08:39;24.30;71.10
1447;DHT22;717;51.522;7.266;2023-06-14T00:11:08;24.30;71.30
1447;DHT22;717;51.522;7.266;2023-06-14T00:13:37;24.20;71.40
1447;DHT22;717;51.522;7.266;2023-06-14T00:16:07;24.20;71.40
1447;DHT22;717;51.522;7.266;2023-06-14T00:18:35;24.20;71.30
1447;DHT22;717;51.522;7.266;2023-06-14T00:21:07;24.20;71.40
1447;DHT22;717;51.522;7.266;2023-06-14T00:23:35;24.20;71.20
1447;DHT22;717;51.522;7.266;2023-06-14T00:26:04;24.10;71.00
1447;DHT22;717;51.522;7.266;2023-06-14T00:28:33;24.10;71.10
1447;DHT22;717;51.522;7.266;2023-06-14T00:31:01;24.10;71.10
1447;DHT22;717;51.522;7.266;2023-06-14T00:33:30;24.10;71.20
1447;DHT22;717;51.522;7.266;2023-06-14T00:35:59;24.00;71.10
1447;DHT22;717;51.522;7.266;2023-06-14T00:38:30;24.00;70.90
1447;DHT22;717;51.522;7.266;2023-06-14T00:40:59;23.90;70.90
1447;DHT22;717;51.522;7.266;2023-06-14T00:43:28;23.90;70.90
1447;DHT22;717;51.522;7.266;2023-06-14T00:45:56;23.90;70.90
1447;DHT22;717;51.522;7.266;2023-06-14T00:48:25;23.90;71.10
1447;DHT22;717;51.522;7.266;2023-06-14T00:50:55;23.80;71.80
1447;DHT22;717;51.522;7.266;2023-06-14T00:53:24;23.80;71.00
1447;DHT22;717;51.522;7.266;2023-06-14T00:55:56;23.80;71.00
1447;DHT22;717;51.522;7.266;2023-06-14T00:58:25;23.80;70.90
1447;DHT22;717;51.522;7.266;2023-06-14T01:00:54;23.80;70.90
1447;DHT22;717;51.522;7.266;2023-06-14T01:03:23;23.70;70.80
1447;DHT22;717;51.522;7.266;2023-06-14T01:05:59;23.70;70.90
1447;DHT22;717;51.522;7.266;2023-06-14T01:08:41;23.70;70.90
1447;DHT22;717;51.522;7.266;2023-06-14T01:11:24;23.70;71.20
1447;DHT22;717;51.522;7.266;2023-06-14T01:13:55;23.70;71.20
1447;DHT22;717;51.522;7.266;2023-06-14T01:16:25;23.70;71.40
1447;DHT22;717;51.522;7.266;2023-06-14T01:18:54;23.70;71.40
1447;DHT22;717;51.522;7.266;2023-06-14T01:21:25;23.60;71.60
1447;DHT22;717;51.522;7.266;2023-06-14T01:23:56;23.60;71.60
1447;DHT22;717;51.522;7.266;2023-06-14T01:26:25;23.60;71.40
1447;DHT22;717;51.522;7.266;2023-06-14T01:28:55;23.60;71.40
1447;DHT22;717;51.522;7.266;2023-06-14T01:31:25;23.60;71.60
1447;DHT22;717;51.522;7.266;2023-06-14T01:33:55;23.50;71.50
1447;DHT22;717;51.522;7.266;2023-06-14T01:36:27;23.50;71.70
1447;DHT22;717;51.522;7.266;2023-06-14T01:38:59;23.50;71.50
1447;DHT22;717;51.522;7.266;2023-06-14T01:41:29;23.50;71.60
1447;DHT22;717;51.522;7.266;2023-06-14T01:43:58;23.40;71.70
1447;DHT22;717;51.522;7.266;2023-06-14T01:46:28;23.40;71.80
1447;DHT22;717;51.522;7.266;2023-06-14T01:48:56;23.40;71.80
1447;DHT22;717;51.522;7.266;2023-06-14T01:51:25;23.40;71.90
1447;DHT22;717;51.522;7.266;2023-06-14T01:53:54;23.30;71.80
1447;DHT22;717;51.522;7.266;2023-06-14T01:56:26;23.30;71.80
1447;DHT22;717;51.522;7.266;2023-06-14T01:58:54;23.30;71.90
1447;DHT22;717;51.522;7.266;2023-06-14T02:01:23;23.30;71.80
1447;DHT22;717;51.522;7.266;2023-06-14T02:03:52;23.30;72.00
1447;DHT22;717;51.522;7.266;2023-06-14T02:06:21;23.20;71.90
1447;DHT22;717;51.522;7.266;2023-06-14T02:08:49;23.20;71.70
1447;DHT22;717;51.522;7.266;2023-06-14T02:11:18;23.20;71.90
1447;DHT22;717;51.522;7.266;2023-06-14T02:13:49;23.20;71.90
1447;DHT22;717;51.522;7.266;2023-06-14T02:16:18;23.20;72.00
1447;DHT22;717;51.522;7.266;2023-06-14T02:18:47;23.10;72.00
1447;DHT22;717;51.522;7.266;2023-06-14T02:21:16;23.20;72.00
1447;DHT22;717;51.522;7.266;2023-06-14T02:23:45;23.10;71.90
1447;DHT22;717;51.522;7.266;2023-06-14T02:26:14;23.10;72.00
1447;DHT22;717;51.522;7.266;2023-06-14T02:28:43;23.10;71.90
1447;DHT22;717;51.522;7.266;2023-06-14T02:31:14;23.10;71.90
1447;DHT22;717;51.522;7.266;2023-06-14T02:33:43;23.00;71.80
1447;DHT22;717;51.522;7.266;2023-06-14T02:36:11;23.00;71.80
1447;DHT22;717;51.522;7.266;2023-06-14T02:38:40;23.00;72.70
1447;DHT22;717;51.522;7.266;2023-06-14T02:41:09;23.00;72.00
1447;DHT22;717;51.522;7.266;2023-06-14T02:43:37;22.90;72.10
1447;DHT22;717;51.522;7.266;2023-06-14T02:46:06;22.90;71.90
1447;DHT22;717;51.522;7.266;2023-06-14T02:48:37;22.90;71.90
1447;DHT22;717;51.522;7.266;2023-06-14T02:51:06;22.90;72.10
1447;DHT22;717;51.522;7.266;2023-06-14T02:53:35;22.90;72.00
1447;DHT22;717;51.522;7.266;2023-06-14T02:56:04;22.80;72.10
1447;DHT22;717;51.522;7.266;2023-06-14T02:58:32;22.80;71.80
1447;DHT22;717;51.522;7.266;2023-06-14T03:01:01;22.80;71.90
1447;DHT22;717;51.522;7.266;2023-06-14T03:03:31;22.70;72.00
1447;DHT22;717;51.522;7.266;2023-06-14T03:06:02;22.80;72.10
1447;DHT22;717;51.522;7.266;2023-06-14T03:08:31;22.70;71.90
1447;DHT22;717;51.522;7.266;2023-06-14T03:11:04;22.70;72.10
1447;DHT22;717;51.522;7.266;2023-06-14T03:13:34;22.60;71.90
1447;DHT22;717;51.522;7.266;2023-06-14T03:16:03;22.60;72.10
1447;DHT22;717;51.522;7.266;2023-06-14T03:18:32;22.60;72.20
1447;DHT22;717;51.522;7.266;2023-06-14T03:21:04;22.60;72.50
1447;DHT22;717;51.522;7.266;2023-06-14T03:23:34;22.60;72.50
1447;DHT22;717;51.522;7.266;2023-06-14T03:26:03;22.60;72.40
1447;DHT22;717;51.522;7.266;2023-06-14T03:28:31;22.60;72.50
1447;DHT22;717;51.522;7.266;2023-06-14T03:31:00;22.50;72.40
1447;DHT22;717;51.522;7.266;2023-06-14T03:33:29;22.60;72.70
1447;DHT22;717;51.522;7.266;2023-06-14T03:35:57;22.50;72.50
1447;DHT22;717;51.522;7.266;2023-06-14T03:38:29;22.50;72.80
1447;DHT22;717;51.522;7.266;2023-06-14T03:40:57;22.50;72.80
1447;DHT22;717;51.522;7.266;2023-06-14T03:43:26;22.40;72.60
1447;DHT22;717;51.522;7.266;2023-06-14T03:45:55;22.40;72.70
1447;DHT22;717;51.522;7.266;2023-06-14T03:48:24;22.40;72.80
1447;DHT22;717;51.522;7.266;2023-06-14T03:50:53;22.40;73.00
1447;DHT22;717;51.522;7.266;2023-06-14T03:53:21;22.30;72.80
1447;DHT22;717;51.522;7.266;2023-06-14T03:55:56;22.30;73.10
1447;DHT22;717;51.522;7.266;2023-06-14T03:58:25;22.30;73.00
1447;DHT22;717;51.522;7.266;2023-06-14T04:00:54;22.20;73.20
1447;DHT22;717;51.522;7.266;2023-06-14T04:03:22;22.20;73.20
1447;DHT22;717;51.522;7.266;2023-06-14T04:05:55;22.20;73.30
1447;DHT22;717;51.522;7.266;2023-06-14T04:08:25;22.20;73.30
1447;DHT22;717;51.522;7.266;2023-06-14T04:10:56;22.20;73.40
1447;DHT22;717;51.522;7.266;2023-06-14T04:13:25;22.20;73.50
1447;DHT22;717;51.522;7.266;2023-06-14T04:15:54;22.10;73.60
1447;DHT22;717;51.522;7.266;2023-06-14T04:18:22;22.10;73.60
1447;DHT22;717;51.522;7.266;2023-06-14T04:20:51;22.10;73.50
1447;DHT22;717;51.522;7.266;2023-06-14T04:23:22;22.10;73.80
1447;DHT22;717;51.522;7.266;2023-06-14T04:25:50;22.00;73.70
1447;DHT22;717;51.522;7.266;2023-06-14T04:28:22;22.00;73.60
1447;DHT22;717;51.522;7.266;2023-06-14T04:30:52;22.00;73.80
1447;DHT22;717;51.522;7.266;2023-06-14T04:33:21;22.00;74.20
1447;DHT22;717;51.522;7.266;2023-06-14T04:35:51;22.10;74.40
1447;DHT22;717;51.522;7.266;2023-06-14T04:38:22;22.00;74.20
1447;DHT22;717;51.522;7.266;2023-06-14T04:40:53;22.00;74.00
1447;DHT22;717;51.522;7.266;2023-06-14T04:43:25;22.00;74.30
1447;DHT22;717;51.522;7.266;2023-06-14T04:45:53;22.00;74.50
1447;DHT22;717;51.522;7.266;2023-06-14T04:48:22;22.00;74.60
1447;DHT22;717;51.522;7.266;2023-06-14T04:50:51;22.00;74.50
1447;DHT22;717;51.522;7.266;2023-06-14T04:53:21;22.00;74.70
1447;DHT22;717;51.522;7.266;2023-06-14T04:55:49;22.00;74.50
1447;DHT22;717;51.522;7.266;2023-06-14T04:58:18;22.00;74.70
1447;DHT22;717;51.522;7.266;2023-06-14T05:00:49;22.00;74.70
1447;DHT22;717;51.522;7.266;2023-06-14T05:03:19;22.00;75.60
1447;DHT22;717;51.522;7.266;2023-06-14T05:05:48;22.00;74.90
1447;DHT22;717;51.522;7.266;2023-06-14T05:08:18;21.90;75.00
1447;DHT22;717;51.522;7.266;2023-06-14T05:10:49;21.90;75.20
1447;DHT22;717;51.522;7.266;2023-06-14T05:13:18;21.90;75.40
1447;DHT22;717;51.522;7.266;2023-06-14T05:15:51;21.90;75.60
1447;DHT22;717;51.522;7.266;2023-06-14T05:18:20;21.90;76.10
1447;DHT22;717;51.522;7.266;2023-06-14T05:20:48;22.00;75.90
1447;DHT22;717;51.522;7.266;2023-06-14T05:23:17;22.00;76.00
1447;DHT22;717;51.522;7.266;2023-06-14T05:25:46;22.00;76.10
1447;DHT22;717;51.522;7.266;2023-06-14T05:28:15;22.00;76.40
1447;DHT22;717;51.522;7.266;2023-06-14T05:30:44;22.00;76.50
1447;DHT22;717;51.522;7.266;2023-06-14T05:33:16;22.00;76.30
1447;DHT22;717;51.522;7.266;2023-06-14T05:35:44;22.10;76.70
1447;DHT22;717;51.522;7.266;2023-06-14T05:38:13;22.10;76.70
1447;DHT22;717;51.522;7.266;2023-06-14T05:40:42;22.10;76.70
1447;DHT22;717;51.522;7.266;2023-06-14T05:43:10;22.10;76.50
1447;DHT22;717;51.522;7.266;2023-06-14T05:45:39;22.10;76.50
1447;DHT22;717;51.522;7.266;2023-06-14T05:48:08;22.20;76.50
1447;DHT22;717;51.522;7.266;2023-06-14T05:50:39;22.20;76.70
1447;DHT22;717;51.522;7.266;2023-06-14T05:53:08;22.20;76.70
1447;DHT22;717;51.522;7.266;2023-06-14T05:55:36;22.20;76.70
1447;DHT22;717;51.522;7.266;2023-06-14T05:58:06;22.20;76.80
1447;DHT22;717;51.522;7.266;2023-06-14T06:00:34;22.20;76.70
1447;DHT22;717;51.522;7.266;2023-06-14T06:03:03;22.20;76.70
1447;DHT22;717;51.522;7.266;2023-06-14T06:05:33;22.20;76.60
1447;DHT22;717;51.522;7.266;2023-06-14T06:08:05;22.30;76.60
1447;DHT22;717;51.522;7.266;2023-06-14T06:10:34;22.30;76.50
1447;DHT22;717;51.522;7.266;2023-06-14T06:13:02;22.30;76.40
1447;DHT22;717;51.522;7.266;2023-06-14T06:15:31;22.30;76.30
1447;DHT22;717;51.522;7.266;2023-06-14T06:18:02;22.30;76.50
1447;DHT22;717;51.522;7.266;2023-06-14T06:20:32;22.30;76.40
1447;DHT22;717;51.522;7.266;2023-06-14T06:23:04;22.30;76.30
1447;DHT22;717;51.522;7.266;2023-06-14T06:25:33;22.30;76.10
1447;DHT22;717;51.522;7.266;2023-06-14T06:28:04;22.30;76.30
1447;DHT22;717;51.522;7.266;2023-06-14T06:30:33;22.30;76.50
1447;DHT22;717;51.522;7.266;2023-06-14T06:33:02;22.40;76.70
1447;DHT22;717;51.522;7.266;2023-06-14T06:35:31;22.40;76.70
1447;DHT22;717;51.522;7.266;2023-06-14T06:38:00;22.40;77.10
1447;DHT22;717;51.522;7.266;2023-06-14T06:40:31;22.50;77.30
1447;DHT22;717;51.522;7.266;2023-06-14T06:43:00;22.50;77.30
1447;DHT22;717;51.522;7.266;2023-06-14T06:45:29;22.50;77.30
1447;DHT22;717;51.522;7.266;2023-06-14T06:47:58;22.50;77.20
1447;DHT22;717;51.522;7.266;2023-06-14T06:50:27;22.50;77.30
1447;DHT22;717;51.522;7.266;2023-06-14T06:52:56;22.50;77.30
1447;DHT22;717;51.522;7.266;2023-06-14T06:55:25;22.60;77.30
1447;DHT22;717;51.522;7.266;2023-06-14T06:57:56;22.60;77.50
1447;DHT22;717;51.522;7.266;2023-06-14T07:00:26;22.60;77.70
1447;DHT22;717;51.522;7.266;2023-06-14T07:02:54;22.60;77.60
1447;DHT22;717;51.522;7.266;2023-06-14T07:05:23;22.60;77.40
1447;DHT22;717;51.522;7.266;2023-06-14T07:07:52;22.60;77.40
1447;DHT22;717;51.522;7.266;2023-06-14T07:10:20;22.70;77.30
1447;DHT22;717;51.522;7.266;2023-06-14T07:12:50;22.70;77.20
1447;DHT22;717;51.522;7.266;2023-06-14T07:15:22;22.70;77.00
1447;DHT22;717;51.522;7.266;2023-06-14T07:17:51;22.70;76.80
1447;DHT22;717;51.522;7.266;2023-06-14T07:20:25;22.70;76.80
1447;DHT22;717;51.522;7.266;2023-06-14T07:22:53;22.70;77.00
1447;DHT22;717;51.522;7.266;2023-06-14T07:25:22;22.70;76.80
1447;DHT22;717;51.522;7.266;2023-06-14T07:27:52;22.80;77.20
1447;DHT22;717;51.522;7.266;2023-06-14T07:30:23;22.80;77.30
1447;DHT22;717;51.522;7.266;2023-06-14T07:32:53;22.90;77.20
1447;DHT22;717;51.522;7.266;2023-06-14T07:35:21;22.90;77.00
1447;DHT22;717;51.522;7.266;2023-06-14T07:37:51;22.90;77.10
1447;DHT22;717;51.522;7.266;2023-06-14T07:40:22;22.90;77.10
1447;DHT22;717;51.522;7.266;2023-06-14T07:42:51;23.00;76.70
1447;DHT22;717;51.522;7.266;2023-06-14T07:45:23;22.90;76.70
1447;DHT22;717;51.522;7.266;2023-06-14T07:47:51;23.00;76.90
1447;DHT22;717;51.522;7.266;2023-06-14T07:50:20;23.00;77.20
1447;DHT22;717;51.522;7.266;2023-06-14T07:52:49;23.00;77.30
1447;DHT22;717;51.522;7.266;2023-06-14T07:55:18;23.00;77.50
1447;DHT22;717;51.522;7.266;2023-06-14T07:57:47;23.00;77.40
1447;DHT22;717;51.522;7.266;2023-06-14T08:00:17;23.10;77.50
1447;DHT22;717;51.522;7.266;2023-06-14T08:02:48;23.10;77.60
1447;DHT22;717;51.522;7.266;2023-06-14T08:05:17;23.10;77.80
1447;DHT22;717;51.522;7.266;2023-06-14T08:07:46;23.10;77.60
1447;DHT22;717;51.522;7.266;2023-06-14T08:10:15;23.20;77.40
1447;DHT22;717;51.522;7.266;2023-06-14T08:12:43;23.20;76.90
1447;DHT22;717;51.522;7.266;2023-06-14T08:15:12;23.20;76.60
1447;DHT22;717;51.522;7.266;2023-06-14T08:17:42;23.30;76.70
1447;DHT22;717;51.522;7.266;2023-06-14T08:20:14;23.30;76.20
1447;DHT22;717;51.522;7.266;2023-06-14T08:22:42;23.30;76.10
1447;DHT22;717;51.522;7.266;2023-06-14T08:25:12;23.30;75.80
1447;DHT22;717;51.522;7.266;2023-06-14T08:27:41;23.30;75.50
1447;DHT22;717;51.522;7.266;2023-06-14T08:30:12;23.40;75.60
1447;DHT22;717;51.522;7.266;2023-06-14T08:32:41;23.40;76.20
1447;DHT22;717;51.522;7.266;2023-06-14T08:35:13;23.40;75.70
1447;DHT22;717;51.522;7.266;2023-06-14T08:37:44;23.40;75.60
1447;DHT22;717;51.522;7.266;2023-06-14T08:40:18;23.50;75.40
1447;DHT22;717;51.522;7.266;2023-06-14T08:42:51;23.50;74.90
1447;DHT22;717;51.522;7.266;2023-06-14T08:45:21;23.60;75.00
1447;DHT22;717;51.522;7.266;2023-06-14T08:47:50;23.60;74.90
1447;DHT22;717;51.522;7.266;2023-06-14T08:50:26;23.60;75.30
1447;DHT22;717;51.522;7.266;2023-06-14T08:52:56;23.70;75.00
1447;DHT22;717;51.522;7.266;2023-06-14T08:55:27;23.70;75.20
1447;DHT22;717;51.522;7.266;2023-06-14T08:57:59;23.70;75.40
1447;DHT22;717;51.522;7.266;2023-06-14T09:00:28;23.70;75.10
1447;DHT22;717;51.522;7.266;2023-06-14T09:02:58;23.70;75.00
1447;DHT22;717;51.522;7.266;2023-06-14T09:05:31;23.80;75.10
1447;DHT22;717;51.522;7.266;2023-06-14T09:07:59;23.80;75.00
1447;DHT22;717;51.522;7.266;2023-06-14T09:10:28;23.90;74.80
1447;DHT22;717;51.522;7.266;2023-06-14T09:13:00;23.90;74.70
1447;DHT22;717;51.522;7.266;2023-06-14T09:15:30;23.90;74.90
1447;DHT22;717;51.522;7.266;2023-06-14T09:18:01;24.00;74.80
1447;DHT22;717;51.522;7.266;2023-06-14T09:20:34;24.00;74.20
1447;DHT22;717;51.522;7.266;2023-06-14T09:23:04;24.10;74.30
1447;DHT22;717;51.522;7.266;2023-06-14T09:25:41;24.10;74.70
1447;DHT22;717;51.522;7.266;2023-06-14T09:28:11;24.10;74.90
1447;DHT22;717;51.522;7.266;2023-06-14T09:30:39;24.10;74.20
1447;DHT22;717;51.522;7.266;2023-06-14T09:33:08;24.20;73.30
1447;DHT22;717;51.522;7.266;2023-06-14T09:35:39;24.20;73.00
1447;DHT22;717;51.522;7.266;2023-06-14T09:38:08;24.20;72.90
1447;DHT22;717;51.522;7.266;2023-06-14T09:40:37;24.20;72.70
1447;DHT22;717;51.522;7.266;2023-06-14T09:43:07;24.20;72.70
1447;DHT22;717;51.522;7.266;2023-06-14T09:45:36;24.30;72.60
1447;DHT22;717;51.522;7.266;2023-06-14T09:48:06;24.30;72.60
1447;DHT22;717;51.522;7.266;2023-06-14T09:50:35;24.30;72.60
1447;DHT22;717;51.522;7.266;2023-06-14T09:53:07;24.40;72.20
1447;DHT22;717;51.522;7.266;2023-06-14T09:55:36;24.40;71.80
1447;DHT22;717;51.522;7.266;2023-06-14T09:58:06;24.40;71.80
1447;DHT22;717;51.522;7.266;2023-06-14T10:00:36;24.50;72.00
1447;DHT22;717;51.522;7.266;2023-06-14T10:03:13;24.50;72.40
1447;DHT22;717;51.522;7.266;2023-06-14T10:05:43;24.50;72.70
1447;DHT22;717;51.522;7.266;2023-06-14T10:08:18;24.60;72.30
1447;DHT22;717;51.522;7.266;2023-06-14T10:10:47;24.60;72.30
1447;DHT22;717;51.522;7.266;2023-06-14T10:13:16;24.70;72.50
1447;DHT22;717;51.522;7.266;2023-06-14T10:15:54;24.70;72.40
1447;DHT22;717;51.522;7.266;2023-06-14T10:18:33;24.70;73.00
1447;DHT22;717;51.522;7.266;2023-06-14T10:21:16;24.70;72.70
1447;DHT22;717;51.522;7.266;2023-06-14T10:23:51;24.80;73.20
1447;DHT22;717;51.522;7.266;2023-06-14T10:26:23;24.90;73.50
1447;DHT22;717;51.522;7.266;2023-06-14T10:29:06;24.90;73.50
1447;DHT22;717;51.522;7.266;2023-06-14T10:31:44;24.90;73.60
1447;DHT22;717;51.522;7.266;2023-06-14T10:34:22;25.00;73.30
1447;DHT22;717;51.522;7.266;2023-06-14T10:37:03;25.10;73.40
1447;DHT22;717;51.522;7.266;2023-06-14T10:39:38;25.10;73.50
1447;DHT22;717;51.522;7.266;2023-06-14T10:42:08;25.10;73.50
1447;DHT22;717;51.522;7.266;2023-06-14T10:44:40;25.20;73.30
1447;DHT22;717;51.522;7.266;2023-06-14T10:47:24;25.30;72.90
1447;DHT22;717;51.522;7.266;2023-06-14T10:49:55;25.40;72.80
1447;DHT22;717;51.522;7.266;2023-06-14T10:52:26;25.50;72.90
1447;DHT22;717;51.522;7.266;2023-06-14T10:55:07;25.60;72.70
1447;DHT22;717;51.522;7.266;2023-06-14T10:57:42;25.70;72.80
1447;DHT22;717;51.522;7.266;2023-06-14T11:00:12;25.70;72.40
1447;DHT22;717;51.522;7.266;2023-06-14T11:05:49;25.80;72.30
1447;DHT22;717;51.522;7.266;2023-06-14T11:08:30;25.90;72.10
1447;DHT22;717;51.522;7.266;2023-06-14T11:11:06;25.90;72.70
1447;DHT22;717;51.522;7.266;2023-06-14T11:13:38;25.90;72.70
1447;DHT22;717;51.522;7.266;2023-06-14T11:16:14;26.00;72.30
1447;DHT22;717;51.522;7.266;2023-06-14T11:18:44;26.00;72.30
1447;DHT22;717;51.522;7.266;2023-06-14T11:21:16;26.10;72.50
1447;DHT22;717;51.522;7.266;2023-06-14T11:23:49;26.10;72.50
1447;DHT22;717;51.522;7.266;2023-06-14T11:26:30;26.20;72.40
1447;DHT22;717;51.522;7.266;2023-06-14T11:29:01;26.30;72.60
1447;DHT22;717;51.522;7.266;2023-06-14T11:31:30;26.30;73.10
1447;DHT22;717;51.522;7.266;2023-06-14T11:34:00;26.40;72.60
1447;DHT22;717;51.522;7.266;2023-06-14T11:36:30;26.40;72.60
1447;DHT22;717;51.522;7.266;2023-06-14T11:38:59;26.40;72.40
1447;DHT22;717;51.522;7.266;2023-06-14T11:41:41;26.50;72.30
1447;DHT22;717;51.522;7.266;2023-06-14T11:44:11;26.50;72.10
1447;DHT22;717;51.522;7.266;2023-06-14T11:46:40;26.50;72.80
1447;DHT22;717;51.522;7.266;2023-06-14T11:49:09;26.60;72.40
1447;DHT22;717;51.522;7.266;2023-06-14T11:51:37;26.60;72.10
1447;DHT22;717;51.522;7.266;2023-06-14T11:54:07;26.70;72.00
1447;DHT22;717;51.522;7.266;2023-06-14T11:56:41;26.70;72.10
1447;DHT22;717;51.522;7.266;2023-06-14T11:59:10;26.70;71.90
1447;DHT22;717;51.522;7.266;2023-06-14T12:01:43;26.80;72.10
1447;DHT22;717;51.522;7.266;2023-06-14T12:04:12;26.90;72.20
1447;DHT22;717;51.522;7.266;2023-06-14T12:06:40;26.90;72.20
1447;DHT22;717;51.522;7.266;2023-06-14T12:09:09;27.00;72.30
1447;DHT22;717;51.522;7.266;2023-06-14T12:11:45;27.00;72.20
1447;DHT22;717;51.522;7.266;2023-06-14T12:14:14;27.10;72.10
1447;DHT22;717;51.522;7.266;2023-06-14T12:16:43;27.10;72.00
1447;DHT22;717;51.522;7.266;2023-06-14T12:19:13;27.20;71.90
1447;DHT22;717;51.522;7.266;2023-06-14T12:21:43;27.20;71.80
1447;DHT22;717;51.522;7.266;2023-06-14T12:24:13;27.30;71.40
1447;DHT22;717;51.522;7.266;2023-06-14T12:26:45;27.30;70.70
1447;DHT22;717;51.522;7.266;2023-06-14T12:29:19;27.30;70.70
1447;DHT22;717;51.522;7.266;2023-06-14T12:31:48;27.40;70.90
1447;DHT22;717;51.522;7.266;2023-06-14T12:34:16;27.40;71.50
1447;DHT22;717;51.522;7.266;2023-06-14T12:36:45;27.50;71.20
1447;DHT22;717;51.522;7.266;2023-06-14T12:39:15;27.50;71.10
1447;DHT22;717;51.522;7.266;2023-06-14T12:41:54;27.50;71.10
1447;DHT22;717;51.522;7.266;2023-06-14T12:44:24;27.60;71.50
1447;DHT22;717;51.522;7.266;2023-06-14T12:46:54;27.70;71.60
1447;DHT22;717;51.522;7.266;2023-06-14T12:49:23;27.70;70.90
1447;DHT22;717;51.522;7.266;2023-06-14T12:51:52;27.70;70.90
1447;DHT22;717;51.522;7.266;2023-06-14T12:54:22;27.80;70.90
1447;DHT22;717;51.522;7.266;2023-06-14T12:57:01;27.80;71.00
1447;DHT22;717;51.522;7.266;2023-06-14T12:59:34;27.90;70.50
1447;DHT22;717;51.522;7.266;2023-06-14T13:02:17;27.90;70.30
1447;DHT22;717;51.522;7.266;2023-06-14T13:04:50;28.00;70.60
1447;DHT22;717;51.522;7.266;2023-06-14T13:07:20;28.00;70.80
1447;DHT22;717;51.522;7.266;2023-06-14T13:09:50;28.00;70.90
1447;DHT22;717;51.522;7.266;2023-06-14T13:12:25;28.10;70.80
1447;DHT22;717;51.522;7.266;2023-06-14T13:14:54;28.10;70.90
1447;DHT22;717;51.522;7.266;2023-06-14T13:17:23;28.10;70.50
1447;DHT22;717;51.522;7.266;2023-06-14T13:19:52;28.20;70.20
1447;DHT22;717;51.522;7.266;2023-06-14T13:22:21;28.20;69.40
1447;DHT22;717;51.522;7.266;2023-06-14T13:24:50;28.20;69.90
1447;DHT22;717;51.522;7.266;2023-06-14T13:27:20;28.20;69.40
1447;DHT22;717;51.522;7.266;2023-06-14T13:29:53;28.30;69.30
1447;DHT22;717;51.522;7.266;2023-06-14T13:32:24;28.30;69.10
1447;DHT22;717;51.522;7.266;2023-06-14T13:34:55;28.30;69.40
1447;DHT22;717;51.522;7.266;2023-06-14T13:37:32;28.30;69.70
1447;DHT22;717;51.522;7.266;2023-06-14T13:40:03;28.30;70.70
1447;DHT22;717;51.522;7.266;2023-06-14T13:42:32;28.40;70.10
1447;DHT22;717;51.522;7.266;2023-06-14T13:45:05;28.40;70.00
1447;DHT22;717;51.522;7.266;2023-06-14T13:47:34;28.50;69.40
1447;DHT22;717;51.522;7.266;2023-06-14T13:50:03;28.50;69.00
1447;DHT22;717;51.522;7.266;2023-06-14T13:52:32;28.50;68.70
1447;DHT22;717;51.522;7.266;2023-06-14T13:55:01;28.60;69.10
1447;DHT22;717;51.522;7.266;2023-06-14T13:57:31;28.60;69.30
1447;DHT22;717;51.522;7.266;2023-06-14T13:59:59;28.60;69.10
1447;DHT22;717;51.522;7.266;2023-06-14T14:02:31;28.70;69.20
1447;DHT22;717;51.522;7.266;2023-06-14T14:05:00;28.70;68.60
1447;DHT22;717;51.522;7.266;2023-06-14T14:07:29;28.70;68.20
1447;DHT22;717;51.522;7.266;2023-06-14T14:09:58;28.80;68.40
1447;DHT22;717;51.522;7.266;2023-06-14T14:12:27;28.70;68.20
1447;DHT22;717;51.522;7.266;2023-06-14T14:14:55;28.70;68.40
1447;DHT22;717;51.522;7.266;2023-06-14T14:17:24;28.80;68.20
1447;DHT22;717;51.522;7.266;2023-06-14T14:19:55;28.80;67.80
1447;DHT22;717;51.522;7.266;2023-06-14T14:22:24;28.80;68.00
1447;DHT22;717;51.522;7.266;2023-06-14T14:24:53;28.90;67.80
1447;DHT22;717;51.522;7.266;2023-06-14T14:27:22;28.90;67.70
1447;DHT22;717;51.522;7.266;2023-06-14T14:29:51;28.90;67.40
1447;DHT22;717;51.522;7.266;2023-06-14T14:32:20;29.00;67.60
1447;DHT22;717;51.522;7.266;2023-06-14T14:34:49;29.00;67.20
1447;DHT22;717;51.522;7.266;2023-06-14T14:37:22;29.00;67.40
1447;DHT22;717;51.522;7.266;2023-06-14T14:39:51;29.00;67.30
1447;DHT22;717;51.522;7.266;2023-06-14T14:42:20;29.00;67.10
1447;DHT22;717;51.522;7.266;2023-06-14T14:44:50;29.10;67.10
1447;DHT22;717;51.522;7.266;2023-06-14T14:47:19;29.00;67.10
1447;DHT22;717;51.522;7.266;2023-06-14T14:49:47;29.00;66.70
1447;DHT22;717;51.522;7.266;2023-06-14T14:52:17;29.10;66.50
1447;DHT22;717;51.522;7.266;2023-06-14T14:54:48;29.10;66.40
1447;DHT22;717;51.522;7.266;2023-06-14T14:57:21;29.10;66.00
1447;DHT22;717;51.522;7.266;2023-06-14T14:59:50;29.10;65.80
1447;DHT22;717;51.522;7.266;2023-06-14T15:02:19;29.10;65.10
1447;DHT22;717;51.522;7.266;2023-06-14T15:04:49;29.10;65.20
1447;DHT22;717;51.522;7.266;2023-06-14T15:07:19;29.20;65.80
1447;DHT22;717;51.522;7.266;2023-06-14T15:09:50;29.10;65.70
1447;DHT22;717;51.522;7.266;2023-06-14T15:12:22;29.10;65.60
1447;DHT22;717;51.522;7.266;2023-06-14T15:14:51;29.10;65.50
1447;DHT22;717;51.522;7.266;2023-06-14T15:17:20;29.20;65.50
1447;DHT22;717;51.522;7.266;2023-06-14T15:19:50;29.20;65.70
1447;DHT22;717;51.522;7.266;2023-06-14T15:22:19;29.20;65.50
1447;DHT22;717;51.522;7.266;2023-06-14T15:24:50;29.20;65.80
1447;DHT22;717;51.522;7.266;2023-06-14T15:27:18;29.20;65.50
1447;DHT22;717;51.522;7.266;2023-06-14T15:29:47;29.20;65.20
1447;DHT22;717;51.522;7.266;2023-06-14T15:32:16;29.20;64.30
1447;DHT22;717;51.522;7.266;2023-06-14T15:34:44;29.20;64.50
1447;DHT22;717;51.522;7.266;2023-06-14T15:37:13;29.20;64.60
1447;DHT22;717;51.522;7.266;2023-06-14T15:39:42;29.20;65.00
1447;DHT22;717;51.522;7.266;2023-06-14T15:42:13;29.20;64.70
1447;DHT22;717;51.522;7.266;2023-06-14T15:44:42;29.20;64.60
1447;DHT22;717;51.522;7.266;2023-06-14T15:47:12;29.20;64.60
1447;DHT22;717;51.522;7.266;2023-06-14T15:49:41;29.20;64.10
1447;DHT22;717;51.522;7.266;2023-06-14T15:52:10;29.20;64.10
1447;DHT22;717;51.522;7.266;2023-06-14T15:54:38;29.20;63.80
1447;DHT22;717;51.522;7.266;2023-06-14T15:57:07;29.20;64.00
1447;DHT22;717;51.522;7.266;2023-06-14T15:59:39;29.20;63.70
1447;DHT22;717;51.522;7.266;2023-06-14T16:02:08;29.20;63.40
1447;DHT22;717;51.522;7.266;2023-06-14T16:04:36;29.20;63.50
1447;DHT22;717;51.522;7.266;2023-06-14T16:07:05;29.20;63.80
1447;DHT22;717;51.522;7.266;2023-06-14T16:09:34;29.20;63.80
1447;DHT22;717;51.522;7.266;2023-06-14T16:12:04;29.20;63.70
1447;DHT22;717;51.522;7.266;2023-06-14T16:14:32;29.20;63.60
1447;DHT22;717;51.522;7.266;2023-06-14T16:17:05;29.30;63.40
1447;DHT22;717;51.522;7.266;2023-06-14T16:19:33;29.30;63.30
1447;DHT22;717;51.522;7.266;2023-06-14T16:22:02;29.20;64.30
1447;DHT22;717;51.522;7.266;2023-06-14T16:24:31;29.30;63.60
1447;DHT22;717;51.522;7.266;2023-06-14T16:27:00;29.20;63.40
1447;DHT22;717;51.522;7.266;2023-06-14T16:29:30;29.20;63.60
1447;DHT22;717;51.522;7.266;2023-06-14T16:31:58;29.20;63.90
1447;DHT22;717;51.522;7.266;2023-06-14T16:34:30;29.20;63.40
1447;DHT22;717;51.522;7.266;2023-06-14T16:37:00;29.20;63.20
1447;DHT22;717;51.522;7.266;2023-06-14T16:39:29;29.20;63.20